createdAt,value
2023-03-14T00:00:07.338Z,29.35
2023-03-14T00:05:03.546Z,18.67
2023-03-14T00:09:57.486Z,17.65
2023-03-14T00:14:52.019Z,18.45
2023-03-14T00:19:45.958Z,18.17
2023-03-14T00:24:39.141Z,18.17
2023-03-14T00:29:33.252Z,19.10
2023-03-14T00:34:30.747Z,16.13
2023-03-14T00:39:22.965Z,16.88
2023-03-14T00:44:17.180Z,20.67
2023-03-14T00:49:09.959Z,19.55
2023-03-14T00:54:03.078Z,19.33
2023-03-14T00:58:56.873Z,18.77
2023-03-14T01:03:52.468Z,17.85
2023-03-14T01:08:45.434Z,16.92
2023-03-14T01:13:39.256Z,21.27
2023-03-14T01:18:32.260Z,23.92
2023-03-14T01:23:26.194Z,23.15
2023-03-14T01:28:18.986Z,25.25
2023-03-14T01:33:14.565Z,26.52
2023-03-14T01:38:09.765Z,29.45
2023-03-14T01:43:16.532Z,47.28
2023-03-14T01:48:09.346Z,22.98
2023-03-14T01:53:03.493Z,34.53
2023-03-14T01:58:01.094Z,30.40
2023-03-14T02:02:58.559Z,30.50
2023-03-14T02:07:56.455Z,28.42
2023-03-14T02:12:57.174Z,29.58
2023-03-14T02:18:09.230Z,27.98
2023-03-14T02:23:07.222Z,27.45
2023-03-14T02:28:00.770Z,27.02
2023-03-14T02:32:57.046Z,23.35
2023-03-14T02:38:11.364Z,25.23
2023-03-14T02:43:08.325Z,30.27
2023-03-14T02:48:07.325Z,32.67
2023-03-14T02:53:02.611Z,34.75
2023-03-14T02:57:56.623Z,39.08
2023-03-14T03:02:50.040Z,39.97
2023-03-14T03:07:43.258Z,28.77
2023-03-14T03:12:36.898Z,26.98
2023-03-14T03:17:32.203Z,32.88
2023-03-14T03:22:25.989Z,37.65
2023-03-14T03:27:18.774Z,40.88
2023-03-14T03:32:11.809Z,37.45
2023-03-14T03:37:05.227Z,45.40
2023-03-14T03:42:04.633Z,49.95
2023-03-14T03:46:58.823Z,39.78
2023-03-14T03:51:53.456Z,33.13
2023-03-14T03:56:47.066Z,33.35
2023-03-14T04:01:40.148Z,39.92
2023-03-14T04:06:33.083Z,46.95
2023-03-14T04:11:27.297Z,48.72
2023-03-14T04:16:43.963Z,69.68
2023-03-14T04:21:45.741Z,98.30
2023-03-14T04:26:39.292Z,89.70
2023-03-14T04:31:34.050Z,105.78
2023-03-14T04:36:27.690Z,99.72
2023-03-14T04:41:22.429Z,106.35
2023-03-14T04:46:15.918Z,109.88
2023-03-14T04:51:09.873Z,104.22
2023-03-14T04:56:03.556Z,95.00
2023-03-14T05:01:22.983Z,98.40
2023-03-14T05:06:36.923Z,91.30
2023-03-14T05:11:52.648Z,43.15
2023-03-14T05:17:04.949Z,54.55
2023-03-14T05:22:21.929Z,51.28
2023-03-14T05:46:21.647Z,7.30
2023-03-14T05:56:28.992Z,38.35
2023-03-14T06:01:29.937Z,70.75
2023-03-14T06:06:34.039Z,74.18
2023-03-14T06:11:28.776Z,59.58
2023-03-14T06:16:22.465Z,53.83
2023-03-14T06:21:17.350Z,51.70
2023-03-14T06:26:13.509Z,51.42
2023-03-14T06:31:07.728Z,49.42
2023-03-14T06:36:11.325Z,46.35
2023-03-14T06:41:09.659Z,43.50
2023-03-14T06:46:08.701Z,41.00
2023-03-14T06:51:05.541Z,36.05
2023-03-14T06:55:58.646Z,32.67
2023-03-14T07:00:55.480Z,27.73
2023-03-14T07:05:53.782Z,25.83
2023-03-14T07:10:46.232Z,29.48
2023-03-14T07:15:39.750Z,30.70
2023-03-14T07:20:36.579Z,29.42
2023-03-14T07:25:31.568Z,30.33
2023-03-14T07:30:25.700Z,27.23
2023-03-14T07:35:20.954Z,34.70
2023-03-14T07:40:16.240Z,30.70
2023-03-14T07:45:12.343Z,29.85
2023-03-14T07:50:08.778Z,26.80
2023-03-14T07:55:01.942Z,24.95
2023-03-14T07:59:54.976Z,23.60
2023-03-14T08:04:47.649Z,24.25
2023-03-14T08:09:41.547Z,24.50
2023-03-14T08:14:35.846Z,25.92
2023-03-14T08:19:29.226Z,22.13
2023-03-14T08:24:22.197Z,22.98
2023-03-14T08:29:15.624Z,21.90
2023-03-14T08:34:09.484Z,25.63
2023-03-14T08:39:03.043Z,22.25
2023-03-14T08:43:56.288Z,26.20
2023-03-14T08:48:50.101Z,20.17
2023-03-14T08:53:46.353Z,20.42
2023-03-14T08:58:39.700Z,19.63
2023-03-14T09:03:33.240Z,20.65
2023-03-14T09:08:26.678Z,18.70
2023-03-14T09:13:20.330Z,16.67
2023-03-14T09:18:13.739Z,19.13
2023-03-14T09:23:07.672Z,17.48
2023-03-14T09:28:01.516Z,15.15
2023-03-14T09:32:54.991Z,16.75
2023-03-14T09:37:47.781Z,15.15
2023-03-14T09:42:42.230Z,18.20
2023-03-14T09:47:37.936Z,18.58
2023-03-14T09:52:39.073Z,16.48
2023-03-14T09:57:52.567Z,21.30
2023-03-14T10:03:13.292Z,27.08
2023-03-14T10:08:06.914Z,20.77
2023-03-14T10:13:03.920Z,17.33
2023-03-14T10:17:57.077Z,19.98
2023-03-14T10:22:52.749Z,13.25
2023-03-14T10:27:48.329Z,15.05
2023-03-14T10:32:49.248Z,14.55
2023-03-14T10:38:01.137Z,15.15
2023-03-14T10:42:57.591Z,19.70
2023-03-14T10:47:53.543Z,11.55
2023-03-14T10:53:03.549Z,12.05
2023-03-14T10:58:00.505Z,15.02
2023-03-14T11:03:14.032Z,13.98
2023-03-14T11:08:16.586Z,19.00
2023-03-14T11:13:26.918Z,16.05
2023-03-14T11:18:57.539Z,13.98
2023-03-14T11:23:58.570Z,11.43
2023-03-14T11:28:53.216Z,9.73
2023-03-14T11:33:59.690Z,11.70
2023-03-14T11:38:57.304Z,14.48
2023-03-14T11:43:59.375Z,11.27
2023-03-14T11:49:27.496Z,7.60
2023-03-14T11:54:25.640Z,6.60
2023-03-14T11:59:23.763Z,11.75
2023-03-14T12:04:22.808Z,7.68
2023-03-14T12:09:16.117Z,9.00
2023-03-14T12:14:25.998Z,13.00
2023-03-14T12:19:24.775Z,7.50
2023-03-14T12:24:25.347Z,9.82
2023-03-14T12:29:25.933Z,10.98
2023-03-14T12:34:19.044Z,10.85
2023-03-14T12:39:38.832Z,12.02
2023-03-14T12:49:33.387Z,10.77
2023-03-14T12:54:44.490Z,11.48
2023-03-14T12:59:39.425Z,15.48
2023-03-14T13:05:12.500Z,12.50
2023-03-14T13:10:11.722Z,9.57
2023-03-14T13:15:33.150Z,12.57
2023-03-14T13:20:40.020Z,13.82
2023-03-14T13:25:37.828Z,12.45
2023-03-14T13:31:01.567Z,11.75
2023-03-14T13:36:03.629Z,21.20
2023-03-14T13:41:01.521Z,13.07
2023-03-14T13:46:05.588Z,18.17
2023-03-14T13:51:07.431Z,13.38
2023-03-14T13:56:05.064Z,9.48
2023-03-14T14:01:26.387Z,8.85
2023-03-14T14:06:24.925Z,9.50
2023-03-14T14:11:44.347Z,10.65
2023-03-14T14:16:38.893Z,10.68
2023-03-14T14:21:33.044Z,9.40
2023-03-14T14:26:26.422Z,16.40
2023-03-14T14:31:26.744Z,14.48
2023-03-14T14:36:44.157Z,9.25
2023-03-14T14:41:41.235Z,12.65
2023-03-14T14:46:36.137Z,11.52
2023-03-14T14:51:35.481Z,9.95
2023-03-14T15:01:26.187Z,12.57
2023-03-14T15:06:20.600Z,11.80
2023-03-14T15:11:17.785Z,15.65
2023-03-14T15:16:12.912Z,12.70
2023-03-14T15:21:06.830Z,10.15
2023-03-14T15:26:00.606Z,9.30
2023-03-14T15:30:56.140Z,13.50
2023-03-14T15:35:50.013Z,10.88
2023-03-14T15:40:43.432Z,11.60
2023-03-14T15:45:37.846Z,13.85
2023-03-14T15:50:31.409Z,12.25
2023-03-14T15:55:25.768Z,12.52
2023-03-14T16:00:26.286Z,12.05
2023-03-14T16:05:20.672Z,9.45
2023-03-14T16:10:14.797Z,10.43
2023-03-14T16:15:09.875Z,12.85
2023-03-14T16:20:02.456Z,9.65
2023-03-14T16:24:56.150Z,9.93
2023-03-14T16:29:49.630Z,10.55
2023-03-14T16:34:43.269Z,13.73
2023-03-14T16:39:56.054Z,14.25
2023-03-14T16:44:50.899Z,12.57
2023-03-14T16:49:44.428Z,13.18
2023-03-14T16:54:38.278Z,13.02
2023-03-14T16:59:33.423Z,12.98
2023-03-14T17:04:29.134Z,15.82
2023-03-14T17:09:22.736Z,14.82
2023-03-14T17:14:16.639Z,15.25
2023-03-14T17:19:09.900Z,13.65
2023-03-14T17:24:03.867Z,15.30
2023-03-14T17:28:57.855Z,19.48
2023-03-14T17:33:52.411Z,19.90
2023-03-14T17:38:46.742Z,19.52
2023-03-14T17:43:40.247Z,15.05
2023-03-14T17:48:34.761Z,17.95
2023-03-14T17:53:28.077Z,12.23
2023-03-14T17:58:21.205Z,11.73
2023-03-14T18:03:14.647Z,11.73
2023-03-14T18:08:07.440Z,12.77
2023-03-14T18:13:00.433Z,13.82
2023-03-14T18:17:53.526Z,13.93
2023-03-14T18:22:47.047Z,13.90
2023-03-14T18:27:41.281Z,14.13
2023-03-14T18:32:34.842Z,13.45
2023-03-14T18:37:27.849Z,15.23
2023-03-14T18:42:20.835Z,17.27
2023-03-14T18:47:14.442Z,16.30
2023-03-14T18:52:07.796Z,15.98
2023-03-14T18:57:01.368Z,16.33
2023-03-14T19:01:56.020Z,16.33
2023-03-14T19:06:49.847Z,17.13
2023-03-14T19:11:44.572Z,16.55
2023-03-14T19:16:38.759Z,20.95
2023-03-14T19:21:34.829Z,17.15
2023-03-14T19:26:30.116Z,17.75
2023-03-14T19:31:23.320Z,18.02
2023-03-14T19:36:25.916Z,17.77
2023-03-14T19:41:22.281Z,16.90
2023-03-14T19:46:17.393Z,19.60
2023-03-14T19:51:11.690Z,17.85
2023-03-14T19:56:08.127Z,20.33
2023-03-14T20:01:02.908Z,19.42
2023-03-14T20:05:56.324Z,20.90
2023-03-14T20:10:49.229Z,19.50
2023-03-14T20:15:43.209Z,16.52
2023-03-14T20:20:36.429Z,19.48
2023-03-14T20:25:30.365Z,22.08
2023-03-14T20:30:24.600Z,20.10
2023-03-14T20:35:24.647Z,16.95
2023-03-14T20:40:20.178Z,18.35
2023-03-14T20:45:14.393Z,17.83
2023-03-14T20:50:09.594Z,19.60
2023-03-14T20:55:03.454Z,17.15
2023-03-14T20:59:57.009Z,19.67
2023-03-14T21:04:53.095Z,17.75
2023-03-14T21:09:47.072Z,18.20
2023-03-14T21:14:42.195Z,19.58
2023-03-14T21:19:36.544Z,22.40
2023-03-14T21:24:29.818Z,20.85
2023-03-14T21:29:24.565Z,18.65
2023-03-14T21:34:21.277Z,18.02
2023-03-14T21:39:15.262Z,16.05
2023-03-14T21:44:07.499Z,19.17
2023-03-14T21:49:00.993Z,19.40
2023-03-14T21:53:55.153Z,19.02
2023-03-14T21:58:49.145Z,23.33
2023-03-14T22:03:46.438Z,23.85
2023-03-14T22:08:39.516Z,25.63
2023-03-14T22:13:32.882Z,22.77
2023-03-14T22:18:26.602Z,23.23
2023-03-14T22:23:20.097Z,23.55
2023-03-14T22:28:13.095Z,26.55
2023-03-14T22:33:06.290Z,22.35
2023-03-14T22:37:59.256Z,25.55
2023-03-14T22:42:53.796Z,23.45
2023-03-14T22:47:47.318Z,27.75
2023-03-14T22:52:41.110Z,23.98
2023-03-14T22:57:34.968Z,25.98
2023-03-14T23:02:28.497Z,26.02
2023-03-14T23:07:22.197Z,26.73
2023-03-14T23:12:17.764Z,23.85
2023-03-14T23:17:11.299Z,31.42
2023-03-14T23:22:04.281Z,30.60
2023-03-14T23:26:57.994Z,37.25
2023-03-14T23:31:51.253Z,39.72
2023-03-14T23:36:46.646Z,30.13
2023-03-14T23:41:39.206Z,27.23
2023-03-14T23:46:33.225Z,27.33
2023-03-14T23:51:28.473Z,26.33
2023-03-14T23:56:21.599Z,62.92
